sensor_id;sensor_type;location;lat;lon;timestamp;pressure;altitude;pressure_sealevel;temperature;humidity
9261;BME280;4667;42.726;23.252;2024-03-02T09:09:24;94741.31;;;9.88;78.91
9261;BME280;4667;42.726;23.252;2024-03-02T09:11:52;94629.22;;;9.18;77.88
9261;BME280;4667;42.726;23.252;2024-03-02T09:14:20;94585.41;;;8.96;76.93
9261;BME280;4667;42.726;23.252;2024-03-02T09:16:47;94762.19;;;10.05;76.75
9261;BME280;4667;42.726;23.252;2024-03-02T09:19:14;94377.44;;;7.81;75.54
9261;BME280;4667;42.726;23.252;2024-03-02T09:21:42;94469.91;;;8.47;75.08
9261;BME280;4667;42.726;23.252;2024-03-02T09:24:09;94690.03;;;10.11;74.58
9261;BME280;4667;42.726;23.252;2024-03-02T09:26:37;94489.81;;;8.75;73.78
9261;BME280;4667;42.726;23.252;2024-03-02T09:29:04;94671.53;;;10.01;73.10
9261;BME280;4667;42.726;23.252;2024-03-02T09:31:31;94436.03;;;8.51;73.29
9261;BME280;4667;42.726;23.252;2024-03-02T09:33:58;94698.50;;;10.23;73.55
9261;BME280;4667;42.726;23.252;2024-03-02T09:36:25;94503.38;;;9.04;72.84
9261;BME280;4667;42.726;23.252;2024-03-02T09:38:52;94760.97;;;10.75;72.45
9261;BME280;4667;42.726;23.252;2024-03-02T09:41:19;94728.16;;;10.46;71.90
9261;BME280;4667;42.726;23.252;2024-03-02T09:43:48;94509.44;;;9.05;71.45
9261;BME280;4667;42.726;23.252;2024-03-02T09:46:15;94464.84;;;8.78;70.30
9261;BME280;4667;42.726;23.252;2024-03-02T09:48:44;94760.38;;;10.58;70.46
9261;BME280;4667;42.726;23.252;2024-03-02T09:51:11;94756.16;;;10.62;70.66
9261;BME280;4667;42.726;23.252;2024-03-02T09:53:40;94759.88;;;10.61;70.76
9261;BME280;4667;42.726;23.252;2024-03-02T09:56:07;94646.47;;;9.88;70.73
9261;BME280;4667;42.726;23.252;2024-03-02T09:58:34;94754.03;;;10.59;70.95
9261;BME280;4667;42.726;23.252;2024-03-02T10:01:05;94760.53;;;10.36;70.43
9261;BME280;4667;42.726;23.252;2024-03-02T10:03:33;94761.84;;;10.33;71.14
9261;BME280;4667;42.726;23.252;2024-03-02T10:06:18;94537.78;;;8.93;72.06
9261;BME280;4667;42.726;23.252;2024-03-02T10:08:46;94756.34;;;10.40;72.07
9261;BME280;4667;42.726;23.252;2024-03-02T10:11:25;94589.56;;;9.29;71.94
9261;BME280;4667;42.726;23.252;2024-03-02T10:14:04;94538.63;;;9.03;71.32
9261;BME280;4667;42.726;23.252;2024-03-02T10:16:35;94750.53;;;10.38;71.88
9261;BME280;4667;42.726;23.252;2024-03-02T10:19:15;94753.75;;;10.45;71.79
9261;BME280;4667;42.726;23.252;2024-03-02T10:21:42;94752.16;;;10.54;72.09
9261;BME280;4667;42.726;23.252;2024-03-02T10:24:10;94740.84;;;10.54;71.71
9261;BME280;4667;42.726;23.252;2024-03-02T10:26:38;94749.84;;;10.63;71.67
9261;BME280;4667;42.726;23.252;2024-03-02T10:29:05;94471.72;;;8.84;71.33
9261;BME280;4667;42.726;23.252;2024-03-02T10:31:32;94750.41;;;10.70;71.90
9261;BME280;4667;42.726;23.252;2024-03-02T10:34:01;94743.22;;;10.55;71.91
9261;BME280;4667;42.726;23.252;2024-03-02T10:36:29;94621.69;;;9.79;71.94
9261;BME280;4667;42.726;23.252;2024-03-02T10:39:02;94482.06;;;8.96;72.22
9261;BME280;4667;42.726;23.252;2024-03-02T10:41:32;94738.00;;;10.65;71.96
9261;BME280;4667;42.726;23.252;2024-03-02T10:47:26;94564.47;;;9.64;71.26
9261;BME280;4667;42.726;23.252;2024-03-02T10:49:56;94743.31;;;10.86;71.47
9261;BME280;4667;42.726;23.252;2024-03-02T10:52:26;94739.91;;;10.85;71.75
9261;BME280;4667;42.726;23.252;2024-03-02T10:54:53;94614.66;;;10.05;71.58
9261;BME280;4667;42.726;23.252;2024-03-02T10:57:21;94438.97;;;9.07;71.10
9261;BME280;4667;42.726;23.252;2024-03-02T10:59:52;94648.28;;;10.50;72.37
9261;BME280;4667;42.726;23.252;2024-03-02T11:02:21;94720.34;;;10.81;72.33
9261;BME280;4667;42.726;23.252;2024-03-02T11:04:49;94734.91;;;11.09;71.97
9261;BME280;4667;42.726;23.252;2024-03-02T11:07:18;94622.47;;;10.52;71.60
9261;BME280;4667;42.726;23.252;2024-03-02T11:09:54;94703.47;;;10.87;71.98
9261;BME280;4667;42.726;23.252;2024-03-02T11:12:25;94652.81;;;10.65;71.30
9261;BME280;4667;42.726;23.252;2024-03-02T11:14:55;94725.69;;;11.17;70.91
9261;BME280;4667;42.726;23.252;2024-03-02T11:17:28;94724.38;;;11.30;70.56
9261;BME280;4667;42.726;23.252;2024-03-02T11:19:57;94606.91;;;10.56;70.67
9261;BME280;4667;42.726;23.252;2024-03-02T11:22:35;94607.72;;;10.72;70.70
9261;BME280;4667;42.726;23.252;2024-03-02T11:25:04;94341.13;;;9.10;69.86
9261;BME280;4667;42.726;23.252;2024-03-02T11:27:59;94722.00;;;11.54;70.09
9261;BME280;4667;42.726;23.252;2024-03-02T11:30:51;94718.28;;;11.60;69.49
9261;BME280;4667;42.726;23.252;2024-03-02T11:33:25;94596.63;;;10.70;69.62
9261;BME280;4667;42.726;23.252;2024-03-02T11:35:56;94586.91;;;10.80;69.11
9261;BME280;4667;42.726;23.252;2024-03-02T11:38:30;94725.16;;;11.66;68.96
9261;BME280;4667;42.726;23.252;2024-03-02T11:40:59;94715.63;;;11.70;68.58
9261;BME280;4667;42.726;23.252;2024-03-02T11:43:27;94614.56;;;11.08;68.16
9261;BME280;4667;42.726;23.252;2024-03-02T11:45:58;94673.41;;;11.39;68.17
9261;BME280;4667;42.726;23.252;2024-03-02T11:48:26;94667.09;;;11.25;68.13
9261;BME280;4667;42.726;23.252;2024-03-02T11:50:53;94722.25;;;11.78;66.55
9261;BME280;4667;42.726;23.252;2024-03-02T11:53:28;94719.59;;;11.78;67.50
9261;BME280;4667;42.726;23.252;2024-03-02T11:55:59;94418.81;;;9.38;67.72
9261;BME280;4667;42.726;23.252;2024-03-02T11:58:27;94624.88;;;10.94;66.97
9261;BME280;4667;42.726;23.252;2024-03-02T12:00:56;94366.97;;;9.33;66.65
9261;BME280;4667;42.726;23.252;2024-03-02T12:03:24;94715.63;;;11.70;66.14
9261;BME280;4667;42.726;23.252;2024-03-02T12:05:52;94719.34;;;11.74;66.45
9261;BME280;4667;42.726;23.252;2024-03-02T12:08:20;94710.34;;;11.70;67.18
9261;BME280;4667;42.726;23.252;2024-03-02T12:11:02;94546.50;;;10.64;67.44
9261;BME280;4667;42.726;23.252;2024-03-02T12:13:29;94714.34;;;11.47;67.36
9261;BME280;4667;42.726;23.252;2024-03-02T12:15:56;94671.56;;;11.45;66.89
9261;BME280;4667;42.726;23.252;2024-03-02T12:18:23;94595.31;;;11.13;66.21
9261;BME280;4667;42.726;23.252;2024-03-02T12:20:51;94436.81;;;10.23;65.91
9261;BME280;4667;42.726;23.252;2024-03-02T12:23:24;94513.84;;;10.65;65.37
9261;BME280;4667;42.726;23.252;2024-03-02T12:25:52;94641.44;;;11.51;65.57
9261;BME280;4667;42.726;23.252;2024-03-02T12:28:20;94616.16;;;11.04;66.49
9261;BME280;4667;42.726;23.252;2024-03-02T12:30:48;94597.94;;;11.18;65.90
9261;BME280;4667;42.726;23.252;2024-03-02T12:33:24;94515.69;;;10.80;65.75
9261;BME280;4667;42.726;23.252;2024-03-02T12:36:03;94714.56;;;11.76;66.50
9261;BME280;4667;42.726;23.252;2024-03-02T12:38:59;94708.50;;;11.86;66.77
9261;BME280;4667;42.726;23.252;2024-03-02T12:42:07;94715.63;;;11.90;66.79
9261;BME280;4667;42.726;23.252;2024-03-02T12:48:23;94713.00;;;11.75;67.21
9261;BME280;4667;42.726;23.252;2024-03-02T12:51:31;94712.22;;;11.64;67.62
9261;BME280;4667;42.726;23.252;2024-03-02T12:54:32;94718.28;;;11.75;67.42
9261;BME280;4667;42.726;23.252;2024-03-02T12:56:59;94533.59;;;10.37;67.35
9261;BME280;4667;42.726;23.252;2024-03-02T12:59:28;94437.56;;;9.77;66.99
9261;BME280;4667;42.726;23.252;2024-03-02T13:01:56;94512.47;;;10.22;67.00
9261;BME280;4667;42.726;23.252;2024-03-02T13:04:27;94448.69;;;9.95;67.20
9261;BME280;4667;42.726;23.252;2024-03-02T13:06:56;94429.69;;;9.77;67.69
9261;BME280;4667;42.726;23.252;2024-03-02T13:09:24;94689.00;;;11.26;67.49
9261;BME280;4667;42.726;23.252;2024-03-02T13:11:57;94630.69;;;10.97;66.99
9261;BME280;4667;42.726;23.252;2024-03-02T13:14:25;94571.56;;;10.52;67.36
9261;BME280;4667;42.726;23.252;2024-03-02T13:16:53;94405.44;;;9.55;67.36
9261;BME280;4667;42.726;23.252;2024-03-02T13:19:23;94330.59;;;9.05;66.85
9261;BME280;4667;42.726;23.252;2024-03-02T13:21:55;94724.63;;;11.59;67.17
9261;BME280;4667;42.726;23.252;2024-03-02T13:24:24;94506.38;;;10.11;66.83
9261;BME280;4667;42.726;23.252;2024-03-02T13:26:54;94645.19;;;11.04;67.20
9261;BME280;4667;42.726;23.252;2024-03-02T13:29:24;94507.44;;;10.00;67.16
9261;BME280;4667;42.726;23.252;2024-03-02T13:31:51;94585.81;;;10.56;67.31
9261;BME280;4667;42.726;23.252;2024-03-02T13:34:18;94379.00;;;9.09;67.27
9261;BME280;4667;42.726;23.252;2024-03-02T13:36:45;94590.00;;;10.41;67.15
9261;BME280;4667;42.726;23.252;2024-03-02T13:39:14;94407.47;;;9.27;67.32
9261;BME280;4667;42.726;23.252;2024-03-02T13:41:41;94700.09;;;11.23;67.06
9261;BME280;4667;42.726;23.252;2024-03-02T13:44:17;94306.56;;;8.66;66.65
9261;BME280;4667;42.726;23.252;2024-03-02T13:46:44;94487.63;;;9.87;66.82
9261;BME280;4667;42.726;23.252;2024-03-02T13:49:11;94735.19;;;11.49;67.36
9261;BME280;4667;42.726;23.252;2024-03-02T13:51:38;94700.34;;;11.06;66.82
9261;BME280;4667;42.726;23.252;2024-03-02T13:54:06;94731.50;;;11.39;66.52
9261;BME280;4667;42.726;23.252;2024-03-02T13:56:34;94654.41;;;10.86;66.20
9261;BME280;4667;42.726;23.252;2024-03-02T13:59:04;94750.25;;;11.43;65.62
9261;BME280;4667;42.726;23.252;2024-03-02T14:01:32;94747.88;;;11.47;65.78
9261;BME280;4667;42.726;23.252;2024-03-02T14:03:59;94741.25;;;11.24;65.49
9261;BME280;4667;42.726;23.252;2024-03-02T14:06:26;94637.50;;;10.57;64.74
9261;BME280;4667;42.726;23.252;2024-03-02T14:08:53;94717.22;;;11.10;65.63
9261;BME280;4667;42.726;23.252;2024-03-02T14:11:21;94755.53;;;11.38;65.13
9261;BME280;4667;42.726;23.252;2024-03-02T14:13:49;94554.09;;;10.10;65.15
9261;BME280;4667;42.726;23.252;2024-03-02T14:16:23;94587.38;;;10.41;64.48
9261;BME280;4667;42.726;23.252;2024-03-02T14:18:50;94357.16;;;9.03;63.69
9261;BME280;4667;42.726;23.252;2024-03-02T14:21:17;94199.06;;;8.01;64.01
9261;BME280;4667;42.726;23.252;2024-03-02T14:23:44;94611.66;;;10.69;64.60
9261;BME280;4667;42.726;23.252;2024-03-02T14:26:11;94548.13;;;10.45;64.29
9261;BME280;4667;42.726;23.252;2024-03-02T14:28:39;94338.81;;;9.34;63.21
9261;BME280;4667;42.726;23.252;2024-03-02T14:31:07;94553.63;;;10.79;63.38
9261;BME280;4667;42.726;23.252;2024-03-02T14:33:34;94288.31;;;9.32;63.11
9261;BME280;4667;42.726;23.252;2024-03-02T14:36:04;94423.94;;;10.31;62.32
9261;BME280;4667;42.726;23.252;2024-03-02T14:38:31;94459.78;;;10.63;62.84
9261;BME280;4667;42.726;23.252;2024-03-02T14:41:04;94492.97;;;10.84;61.78
9261;BME280;4667;42.726;23.252;2024-03-02T14:43:31;94503.44;;;11.25;60.84
9261;BME280;4667;42.726;23.252;2024-03-02T14:45:59;94670.81;;;12.40;60.59
9261;BME280;4667;42.726;23.252;2024-03-02T14:48:27;94336.72;;;10.07;60.27
9261;BME280;4667;42.726;23.252;2024-03-02T14:50:56;94649.53;;;12.01;60.72
9261;BME280;4667;42.726;23.252;2024-03-02T14:53:23;94639.72;;;12.11;59.78
9261;BME280;4667;42.726;23.252;2024-03-02T14:55:50;94702.78;;;12.38;59.00
9261;BME280;4667;42.726;23.252;2024-03-02T14:58:17;94467.09;;;11.02;58.33
9261;BME280;4667;42.726;23.252;2024-03-02T15:00:44;94657.41;;;12.16;58.34
9261;BME280;4667;42.726;23.252;2024-03-02T15:03:11;94540.25;;;11.66;57.66
9261;BME280;4667;42.726;23.252;2024-03-02T15:05:40;94576.97;;;11.73;58.04
9261;BME280;4667;42.726;23.252;2024-03-02T15:08:07;94561.44;;;11.51;58.38
9261;BME280;4667;42.726;23.252;2024-03-02T15:10:34;94592.25;;;11.76;58.46
9261;BME280;4667;42.726;23.252;2024-03-02T15:13:01;94582.00;;;11.69;58.75
9261;BME280;4667;42.726;23.252;2024-03-02T15:15:32;94154.91;;;8.81;58.40
9261;BME280;4667;42.726;23.252;2024-03-02T15:17:59;94772.78;;;12.66;59.24
9261;BME280;4667;42.726;23.252;2024-03-02T15:20:26;94494.59;;;10.70;59.86
9261;BME280;4667;42.726;23.252;2024-03-02T15:22:54;94191.91;;;8.59;60.45
9261;BME280;4667;42.726;23.252;2024-03-02T15:25:21;94661.75;;;11.61;61.03
9261;BME280;4667;42.726;23.252;2024-03-02T15:27:48;94440.53;;;10.47;59.88
9261;BME280;4667;42.726;23.252;2024-03-02T15:30:16;94313.59;;;9.63;59.73
9261;BME280;4667;42.726;23.252;2024-03-02T15:32:43;94596.06;;;11.34;60.23
9261;BME280;4667;42.726;23.252;2024-03-02T15:35:10;94571.59;;;10.77;61.10
9261;BME280;4667;42.726;23.252;2024-03-02T15:37:37;94472.97;;;10.27;61.26
9261;BME280;4667;42.726;23.252;2024-03-02T15:40:07;94780.78;;;12.51;60.96
9261;BME280;4667;42.726;23.252;2024-03-02T15:42:35;94726.72;;;11.97;60.60
9261;BME280;4667;42.726;23.252;2024-03-02T15:45:02;94709.03;;;12.03;60.71
9261;BME280;4667;42.726;23.252;2024-03-02T15:47:30;94777.94;;;12.22;61.36
9261;BME280;4667;42.726;23.252;2024-03-02T15:49:57;94777.13;;;12.27;61.46
9261;BME280;4667;42.726;23.252;2024-03-02T15:52:24;94469.75;;;9.95;61.90
9261;BME280;4667;42.726;23.252;2024-03-02T15:54:51;94328.22;;;9.08;61.47
9261;BME280;4667;42.726;23.252;2024-03-02T15:57:20;94655.72;;;11.35;61.45
9261;BME280;4667;42.726;23.252;2024-03-02T15:59:48;94782.72;;;12.20;61.08
9261;BME280;4667;42.726;23.252;2024-03-02T16:02:15;94533.09;;;10.56;61.65
9261;BME280;4667;42.726;23.252;2024-03-02T16:04:42;94803.31;;;12.18;61.89
9261;BME280;4667;42.726;23.252;2024-03-02T16:07:09;94572.09;;;10.74;62.43
9261;BME280;4667;42.726;23.252;2024-03-02T16:09:36;94764.75;;;11.81;63.44
9261;BME280;4667;42.726;23.252;2024-03-02T16:12:04;94789.59;;;12.06;62.60
9261;BME280;4667;42.726;23.252;2024-03-02T16:14:33;94581.06;;;10.58;63.12
9261;BME280;4667;42.726;23.252;2024-03-02T16:17:01;94776.69;;;11.94;63.28
9261;BME280;4667;42.726;23.252;2024-03-02T16:19:28;94786.16;;;11.80;63.74
9261;BME280;4667;42.726;23.252;2024-03-02T16:21:55;94662.59;;;10.90;64.20
9261;BME280;4667;42.726;23.252;2024-03-02T16:24:22;94424.28;;;9.26;64.23
9261;BME280;4667;42.726;23.252;2024-03-02T16:26:49;94529.28;;;10.01;64.77
9261;BME280;4667;42.726;23.252;2024-03-02T16:29:16;94700.06;;;10.97;65.20
9261;BME280;4667;42.726;23.252;2024-03-02T16:31:45;94484.41;;;9.55;65.06
9261;BME280;4667;42.726;23.252;2024-03-02T16:34:12;94510.50;;;9.67;65.11
9261;BME280;4667;42.726;23.252;2024-03-02T16:36:39;94616.84;;;10.28;65.67
9261;BME280;4667;42.726;23.252;2024-03-02T16:39:05;94794.34;;;11.42;65.21
9261;BME280;4667;42.726;23.252;2024-03-02T16:41:34;94798.28;;;11.35;65.87
9261;BME280;4667;42.726;23.252;2024-03-02T16:44:02;94804.34;;;11.30;65.76
9261;BME280;4667;42.726;23.252;2024-03-02T16:46:30;94824.41;;;11.21;65.79
9261;BME280;4667;42.726;23.252;2024-03-02T16:48:58;94578.94;;;9.67;66.00
9261;BME280;4667;42.726;23.252;2024-03-02T16:51:25;94617.50;;;9.88;66.24
9261;BME280;4667;42.726;23.252;2024-03-02T16:53:52;94628.59;;;9.95;66.72
9261;BME280;4667;42.726;23.252;2024-03-02T16:56:19;94650.19;;;10.02;67.20
9261;BME280;4667;42.726;23.252;2024-03-02T16:58:46;94816.16;;;10.97;66.96
9261;BME280;4667;42.726;23.252;2024-03-02T17:01:13;94588.31;;;9.42;67.00
9261;BME280;4667;42.726;23.252;2024-03-02T17:03:40;94812.16;;;10.89;67.63
9261;BME280;4667;42.726;23.252;2024-03-02T17:06:08;94814.28;;;10.87;67.76
9261;BME280;4667;42.726;23.252;2024-03-02T17:08:37;94693.44;;;10.06;67.12
9261;BME280;4667;42.726;23.252;2024-03-02T17:11:04;94743.88;;;10.25;66.76
9261;BME280;4667;42.726;23.252;2024-03-02T17:13:31;94705.28;;;9.99;67.18
9261;BME280;4667;42.726;23.252;2024-03-02T17:15:58;94734.63;;;10.23;67.34
9261;BME280;4667;42.726;23.252;2024-03-02T17:18:25;94758.69;;;10.36;67.51
9261;BME280;4667;42.726;23.252;2024-03-02T17:20:52;94493.97;;;8.66;67.73
9261;BME280;4667;42.726;23.252;2024-03-02T17:23:21;94641.28;;;9.56;68.01
9261;BME280;4667;42.726;23.252;2024-03-02T17:25:48;94623.00;;;9.34;67.27
9261;BME280;4667;42.726;23.252;2024-03-02T17:28:24;94633.47;;;9.24;67.09
9261;BME280;4667;42.726;23.252;2024-03-02T17:30:51;94627.41;;;9.23;67.54
9261;BME280;4667;42.726;23.252;2024-03-02T17:33:18;94391.75;;;7.63;67.60
9261;BME280;4667;42.726;23.252;2024-03-02T17:35:45;94726.50;;;9.82;68.43
9261;BME280;4667;42.726;23.252;2024-03-02T17:38:13;94708.56;;;9.42;69.05
9261;BME280;4667;42.726;23.252;2024-03-02T17:40:41;94856.69;;;10.28;69.31
9261;BME280;4667;42.726;23.252;2024-03-02T17:43:10;94715.56;;;9.58;68.75
9261;BME280;4667;42.726;23.252;2024-03-02T17:45:37;94658.56;;;9.04;68.66
9261;BME280;4667;42.726;23.252;2024-03-02T17:48:06;94823.34;;;10.12;69.07
9261;BME280;4667;42.726;23.252;2024-03-02T17:50:33;94554.63;;;8.32;69.00
9261;BME280;4667;42.726;23.252;2024-03-02T17:53:00;94535.78;;;8.14;69.51
9261;BME280;4667;42.726;23.252;2024-03-02T17:55:28;94659.22;;;8.90;69.17
9261;BME280;4667;42.726;23.252;2024-03-02T17:57:56;94849.72;;;10.12;69.21
9261;BME280;4667;42.726;23.252;2024-03-02T18:00:23;94732.09;;;9.21;69.50
9261;BME280;4667;42.726;23.252;2024-03-02T18:02:53;94743.19;;;9.23;69.32
9261;BME280;4667;42.726;23.252;2024-03-02T18:05:20;94689.31;;;8.99;69.22
9261;BME280;4667;42.726;23.252;2024-03-02T18:07:47;94691.63;;;8.95;69.53
9261;BME280;4667;42.726;23.252;2024-03-02T18:10:14;94853.28;;;9.96;69.46
9261;BME280;4667;42.726;23.252;2024-03-02T18:12:41;94859.88;;;9.93;69.78
9261;BME280;4667;42.726;23.252;2024-03-02T18:15:10;94846.31;;;9.79;69.64
9261;BME280;4667;42.726;23.252;2024-03-02T18:17:37;94831.88;;;9.55;69.62
9261;BME280;4667;42.726;23.252;2024-03-02T18:20:05;94744.00;;;8.97;69.83
9261;BME280;4667;42.726;23.252;2024-03-02T18:22:34;94375.19;;;6.65;69.33
9261;BME280;4667;42.726;23.252;2024-03-02T18:25:01;94788.34;;;9.15;69.70
9261;BME280;4667;42.726;23.252;2024-03-02T18:27:28;94527.06;;;7.32;70.03
9261;BME280;4667;42.726;23.252;2024-03-02T18:29:55;94683.59;;;8.31;70.09
9261;BME280;4667;42.726;23.252;2024-03-02T18:32:24;94873.28;;;9.32;70.58
9261;BME280;4667;42.726;23.252;2024-03-02T18:34:52;94718.56;;;8.31;70.62
9261;BME280;4667;42.726;23.252;2024-03-02T18:37:19;94751.88;;;8.48;70.69
9261;BME280;4667;42.726;23.252;2024-03-02T18:39:47;94876.38;;;9.29;71.18
9261;BME280;4667;42.726;23.252;2024-03-02T18:42:15;94833.97;;;8.99;71.01
9261;BME280;4667;42.726;23.252;2024-03-02T18:44:42;94605.63;;;7.44;70.97
9261;BME280;4667;42.726;23.252;2024-03-02T18:47:09;94599.31;;;7.23;70.75
9261;BME280;4667;42.726;23.252;2024-03-02T18:49:42;94765.75;;;8.43;71.18
9261;BME280;4667;42.726;23.252;2024-03-02T18:52:10;94359.28;;;5.60;70.76
9261;BME280;4667;42.726;23.252;2024-03-02T18:54:37;94637.38;;;7.64;70.99
9261;BME280;4667;42.726;23.252;2024-03-02T18:57:04;94883.69;;;9.00;71.50
9261;BME280;4667;42.726;23.252;2024-03-02T18:59:35;94820.16;;;8.65;71.42
9261;BME280;4667;42.726;23.252;2024-03-02T19:02:02;94653.06;;;7.59;71.27
9261;BME280;4667;42.726;23.252;2024-03-02T19:04:29;94765.25;;;8.24;71.34
9261;BME280;4667;42.726;23.252;2024-03-02T19:06:59;94877.22;;;9.08;71.62
9261;BME280;4667;42.726;23.252;2024-03-02T19:09:26;94585.63;;;7.21;71.61
9261;BME280;4667;42.726;23.252;2024-03-02T19:11:54;94808.31;;;8.62;71.76
9261;BME280;4667;42.726;23.252;2024-03-02T19:14:21;94759.00;;;8.30;71.74
9261;BME280;4667;42.726;23.252;2024-03-02T19:16:48;94721.00;;;7.94;71.70
9261;BME280;4667;42.726;23.252;2024-03-02T19:19:15;94769.75;;;8.29;71.73
9261;BME280;4667;42.726;23.252;2024-03-02T19:21:42;94890.41;;;9.13;71.77
9261;BME280;4667;42.726;23.252;2024-03-02T19:24:11;94708.28;;;7.86;71.81
9261;BME280;4667;42.726;23.252;2024-03-02T19:26:38;94892.44;;;9.06;71.55
9261;BME280;4667;42.726;23.252;2024-03-02T19:29:06;94786.88;;;8.31;71.81
9261;BME280;4667;42.726;23.252;2024-03-02T19:31:34;94892.06;;;8.97;72.24
9261;BME280;4667;42.726;23.252;2024-03-02T19:34:01;94703.19;;;7.79;71.70
9261;BME280;4667;42.726;23.252;2024-03-02T19:36:29;94891.56;;;9.00;71.97
9261;BME280;4667;42.726;23.252;2024-03-02T19:38:56;94818.09;;;8.45;72.30
9261;BME280;4667;42.726;23.252;2024-03-02T19:41:25;94873.03;;;8.68;72.58
9261;BME280;4667;42.726;23.252;2024-03-02T19:43:52;94900.25;;;8.79;72.58
9261;BME280;4667;42.726;23.252;2024-03-02T19:46:20;94887.81;;;8.91;72.68
9261;BME280;4667;42.726;23.252;2024-03-02T19:48:48;94889.78;;;8.84;72.57
9261;BME280;4667;42.726;23.252;2024-03-02T19:51:17;94672.94;;;7.55;72.27
9261;BME280;4667;42.726;23.252;2024-03-02T19:53:45;94753.44;;;8.05;72.29
9261;BME280;4667;42.726;23.252;2024-03-02T19:56:17;94733.59;;;7.75;72.49
9261;BME280;4667;42.726;23.252;2024-03-02T19:58:46;94890.19;;;8.93;72.41
9261;BME280;4667;42.726;23.252;2024-03-02T20:01:17;94904.44;;;8.97;72.58
9261;BME280;4667;42.726;23.252;2024-03-02T20:03:45;94785.38;;;8.19;72.46
9261;BME280;4667;42.726;23.252;2024-03-02T20:06:15;94701.56;;;7.73;72.22
9261;BME280;4667;42.726;23.252;2024-03-02T20:08:43;94781.53;;;8.26;72.04
9261;BME280;4667;42.726;23.252;2024-03-02T20:11:10;94833.28;;;8.43;72.07
9261;BME280;4667;42.726;23.252;2024-03-02T20:13:37;94913.84;;;8.93;72.21
9261;BME280;4667;42.726;23.252;2024-03-02T20:16:08;94774.34;;;7.78;72.43
9261;BME280;4667;42.726;23.252;2024-03-02T20:18:35;94798.97;;;7.94;72.47
9261;BME280;4667;42.726;23.252;2024-03-02T20:21:03;94911.06;;;8.61;72.56
9261;BME280;4667;42.726;23.252;2024-03-02T20:23:31;94842.94;;;8.03;72.87
9261;BME280;4667;42.726;23.252;2024-03-02T20:26:00;94901.16;;;8.68;72.74
9261;BME280;4667;42.726;23.252;2024-03-02T20:28:30;94896.69;;;8.68;71.94
9261;BME280;4667;42.726;23.252;2024-03-02T20:30:57;94712.06;;;7.56;71.70
9261;BME280;4667;42.726;23.252;2024-03-02T20:33:25;94904.91;;;8.94;71.54
9261;BME280;4667;42.726;23.252;2024-03-02T20:35:55;94899.97;;;8.97;71.33
9261;BME280;4667;42.726;23.252;2024-03-02T20:38:22;94901.06;;;9.01;71.80
9261;BME280;4667;42.726;23.252;2024-03-02T20:40:52;94918.59;;;8.74;72.44
9261;BME280;4667;42.726;23.252;2024-03-02T20:43:20;94914.63;;;8.71;72.36
9261;BME280;4667;42.726;23.252;2024-03-02T20:45:49;94909.47;;;8.59;72.75
9261;BME280;4667;42.726;23.252;2024-03-02T20:48:17;94811.81;;;8.12;72.07
9261;BME280;4667;42.726;23.252;2024-03-02T20:50:53;94447.09;;;5.56;72.18
9261;BME280;4667;42.726;23.252;2024-03-02T20:53:21;94620.31;;;6.89;72.03
9261;BME280;4667;42.726;23.252;2024-03-02T20:55:48;94492.06;;;5.98;72.10
9261;BME280;4667;42.726;23.252;2024-03-02T20:58:15;94848.81;;;8.27;72.54
9261;BME280;4667;42.726;23.252;2024-03-02T21:00:42;94689.28;;;7.23;72.40
9261;BME280;4667;42.726;23.252;2024-03-02T21:03:09;94564.72;;;6.37;72.22
9261;BME280;4667;42.726;23.252;2024-03-02T21:05:37;94627.00;;;6.97;71.86
9261;BME280;4667;42.726;23.252;2024-03-02T21:08:08;94475.03;;;6.13;71.78
9261;BME280;4667;42.726;23.252;2024-03-02T21:10:35;94479.63;;;6.06;72.00
9261;BME280;4667;42.726;23.252;2024-03-02T21:13:03;94911.03;;;8.99;71.82
9261;BME280;4667;42.726;23.252;2024-03-02T21:15:30;94899.56;;;9.10;71.18
9261;BME280;4667;42.726;23.252;2024-03-02T21:17:57;94914.47;;;9.22;70.85
9261;BME280;4667;42.726;23.252;2024-03-02T21:20:26;94460.75;;;6.37;70.74
9261;BME280;4667;42.726;23.252;2024-03-02T21:22:54;94673.59;;;7.84;70.91
9261;BME280;4667;42.726;23.252;2024-03-02T21:25:24;94776.84;;;8.45;70.38
9261;BME280;4667;42.726;23.252;2024-03-02T21:27:55;94801.13;;;8.79;71.02
9261;BME280;4667;42.726;23.252;2024-03-02T21:30:23;94882.53;;;9.40;70.57
9261;BME280;4667;42.726;23.252;2024-03-02T21:32:51;94705.09;;;8.28;70.41
9261;BME280;4667;42.726;23.252;2024-03-02T21:35:18;94592.03;;;7.69;70.42
9261;BME280;4667;42.726;23.252;2024-03-02T21:37:45;94849.22;;;9.24;70.74
9261;BME280;4667;42.726;23.252;2024-03-02T21:40:12;94896.16;;;9.59;70.41
9261;BME280;4667;42.726;23.252;2024-03-02T21:42:46;94817.19;;;9.05;70.30
9261;BME280;4667;42.726;23.252;2024-03-02T21:45:15;94893.75;;;9.52;70.23
9261;BME280;4667;42.726;23.252;2024-03-02T21:47:44;94788.50;;;8.76;70.67
9261;BME280;4667;42.726;23.252;2024-03-02T21:50:12;94760.56;;;8.48;70.79
9261;BME280;4667;42.726;23.252;2024-03-02T21:52:42;94813.38;;;8.69;70.91
9261;BME280;4667;42.726;23.252;2024-03-02T21:55:09;94756.53;;;8.24;71.29
9261;BME280;4667;42.726;23.252;2024-03-02T21:57:37;94904.72;;;9.00;70.53
9261;BME280;4667;42.726;23.252;2024-03-02T22:00:08;94792.31;;;8.08;70.11
9261;BME280;4667;42.726;23.252;2024-03-02T22:02:35;94615.25;;;6.66;70.26
9261;BME280;4667;42.726;23.252;2024-03-02T22:05:04;94685.38;;;7.09;70.73
9261;BME280;4667;42.726;23.252;2024-03-02T22:07:39;94774.56;;;7.60;70.74
9261;BME280;4667;42.726;23.252;2024-03-02T22:10:07;94815.19;;;7.91;71.47
9261;BME280;4667;42.726;23.252;2024-03-02T22:12:35;94642.41;;;6.76;71.17
9261;BME280;4667;42.726;23.252;2024-03-02T22:15:10;94409.38;;;5.24;71.04
9261;BME280;4667;42.726;23.252;2024-03-02T22:17:37;94510.34;;;5.82;70.80
9261;BME280;4667;42.726;23.252;2024-03-02T22:20:05;94585.25;;;6.28;70.46
9261;BME280;4667;42.726;23.252;2024-03-02T22:22:32;94605.22;;;6.46;71.11
9261;BME280;4667;42.726;23.252;2024-03-02T22:25:00;94671.59;;;6.68;70.80
9261;BME280;4667;42.726;23.252;2024-03-02T22:27:27;94572.94;;;5.71;71.34
9261;BME280;4667;42.726;23.252;2024-03-02T22:29:54;94672.44;;;6.40;71.88
9261;BME280;4667;42.726;23.252;2024-03-02T22:32:23;94362.34;;;4.43;71.45
9261;BME280;4667;42.726;23.252;2024-03-02T22:34:50;94822.09;;;7.29;72.42
9261;BME280;4667;42.726;23.252;2024-03-02T22:37:17;94601.69;;;5.95;72.57
9261;BME280;4667;42.726;23.252;2024-03-02T22:39:44;94920.56;;;8.11;72.33
9261;BME280;4667;42.726;23.252;2024-03-02T22:42:11;94886.88;;;7.74;72.88